Terminal Aerodrome Forecast
Issued by NWS Blacksburg, VA

Home | Current Version | Previous Version | Text Only | Print | Product List | Glossary On
Versions: 1 2 3 4 5 6 7 8 9 10 11 12 13 14
000
FTUS41 KRNK 181138
TAFLYH
TAF
KLYH 181138Z 1812/1912 20007KT P6SM BKN200
     FM181500 21012G20KT P6SM FEW130
     FM190000 21013KT P6SM BKN030
     FM190300 21013G23KT P6SM VCSH OVC030
     FM190500 22013G23KT P6SM -SHRA OVC025
     FM190730 27013G22KT P6SM -SHRA SCT030 BKN080=

USA.gov is the U.S. government's official web portal to all federal, state and local government web resources and services.